Time;durP1;ratioP1;P1;durP2;ratioP2;P2;SDS_P1;SDS_P2;PMS_P1;PMS_P2;Temp;Humidity;BMP_temperature;BMP_pressure;BME280_temperature;BME280_humidity;BME280_pressure;Samples;Min_cycle;Max_cycle;Signal;HPM_P1;HPM_P2
2022/07/13 00:00:50;;;;;;;9.13;1.50;;;;;;;16.79;85.41;101230.63;5094599;28;20044;-83
2022/07/13 00:03:17;;;;;;;9.05;1.60;;;;;;;16.91;85.17;101223.81;5079321;28;20048;-83
2022/07/13 00:05:44;;;;;;;6.15;1.40;;;;;;;16.77;84.72;101217.50;5092617;28;20051;-84
2022/07/13 00:08:11;;;;;;;7.80;1.35;;;;;;;16.85;85.20;101215.28;5094989;28;20055;-83
2022/07/13 00:10:38;;;;;;;5.03;1.00;;;;;;;16.94;85.40;101226.28;5094479;28;20401;-83
2022/07/13 00:13:05;;;;;;;5.72;1.40;;;;;;;16.80;85.67;101224.38;5094277;28;20096;-83
2022/07/13 00:15:33;;;;;;;5.45;1.20;;;;;;;16.59;86.41;101199.97;5109847;28;20048;-83
2022/07/13 00:18:00;;;;;;;7.35;1.45;;;;;;;16.67;86.45;101226.88;5095189;28;20054;-83
2022/07/13 00:20:27;;;;;;;5.75;1.30;;;;;;;16.73;86.51;101218.56;5112533;28;20047;-83
2022/07/13 00:22:54;;;;;;;4.13;1.15;;;;;;;16.69;86.46;101220.53;5085656;28;20044;-83
2022/07/13 00:25:22;;;;;;;7.80;1.55;;;;;;;16.59;85.67;101223.78;5074985;28;20094;-83
2022/07/13 00:27:49;;;;;;;10.00;1.70;;;;;;;16.63;85.48;101212.13;5094879;28;20055;-84
2022/07/13 00:30:15;;;;;;;7.63;1.90;;;;;;;16.60;86.13;101234.28;5108854;28;20386;-84
2022/07/13 00:32:42;;;;;;;6.50;1.25;;;;;;;16.08;88.27;101187.75;5089060;28;20397;-83
2022/07/13 00:35:09;;;;;;;6.60;1.30;;;;;;;16.33;86.57;101200.50;5094693;28;20047;-83
2022/07/13 00:37:36;;;;;;;9.43;1.90;;;;;;;16.39;87.73;101231.00;5094677;28;20412;-84
2022/07/13 00:40:03;;;;;;;7.88;1.50;;;;;;;16.49;87.68;101237.50;5092727;28;20051;-83
2022/07/13 00:42:30;;;;;;;5.10;1.20;;;;;;;16.28;89.50;101222.81;5089335;28;20088;-83
2022/07/13 00:44:57;;;;;;;5.95;1.30;;;;;;;16.35;87.67;101218.06;5092672;28;20127;-83
2022/07/13 00:47:32;;;;;;;6.25;1.35;;;;;;;16.20;91.44;101235.56;5101517;28;20129;-83
2022/07/13 00:50:02;;;;;;;8.77;1.30;;;;;;;16.36;90.02;101251.47;5106009;28;20544;-83
2022/07/13 00:52:30;;;;;;;7.53;1.48;;;;;;;16.35;90.00;101231.28;5105472;28;20417;-83
2022/07/13 00:54:59;;;;;;;6.55;1.27;;;;;;;15.97;92.60;101202.47;5090460;28;20543;-83
2022/07/13 00:57:28;;;;;;;8.45;1.50;;;;;;;16.26;90.80;101229.97;5091876;28;20409;-83
2022/07/13 00:59:58;;;;;;;9.82;1.92;;;;;;;16.29;91.45;101238.59;5090535;28;20055;-83
2022/07/13 01:02:24;;;;;;;4.90;1.42;;;;;;;16.10;92.91;101220.22;5094142;28;20040;-83
2022/07/13 01:04:51;;;;;;;4.95;1.17;;;;;;;16.16;93.91;101226.13;5093847;28;20055;-83
2022/07/13 01:07:18;;;;;;;4.90;1.30;;;;;;;16.11;92.62;101223.69;5086772;28;20675;-83
2022/07/13 01:09:45;;;;;;;3.70;1.10;;;;;;;16.16;92.86;101239.31;5072930;28;20048;-83
2022/07/13 01:12:12;;;;;;;4.70;1.20;;;;;;;16.07;94.74;101240.66;5104355;28;20040;-83
2022/07/13 01:14:40;;;;;;;8.15;1.40;;;;;;;16.24;92.68;101235.34;5086298;28;20052;-83
2022/07/13 01:17:07;;;;;;;11.82;1.85;;;;;;;15.90;95.38;101237.13;5089806;28;20048;-83
2022/07/13 01:19:35;;;;;;;8.30;1.45;;;;;;;15.93;96.30;101229.00;5080635;28;20400;-83
2022/07/13 01:22:02;;;;;;;6.03;1.38;;;;;;;15.96;94.73;101240.38;5088443;28;20051;-83
2022/07/13 01:24:30;;;;;;;9.05;1.90;;;;;;;16.03;95.00;101250.53;5074646;28;20062;-84
2022/07/13 01:26:58;;;;;;;4.78;1.42;;;;;;;15.86;95.33;101232.91;5087861;28;20047;-83
2022/07/13 01:29:25;;;;;;;6.68;1.50;;;;;;;15.64;96.45;101212.03;5087763;28;20469;-83
2022/07/13 01:31:57;;;;;;;8.68;1.55;;;;;;;15.69;98.56;101236.41;5093396;28;20044;-83
2022/07/13 01:34:24;;;;;;;4.65;1.20;;;;;;;15.80;97.91;101227.97;5081102;28;20102;-83
2022/07/13 01:36:52;;;;;;;6.10;1.13;;;;;;;15.83;95.23;101217.25;5103615;28;20062;-81
2022/07/13 01:39:19;;;;;;;6.32;1.45;;;;;;;16.01;95.59;101262.97;5086267;28;20135;-83
2022/07/13 01:41:46;;;;;;;10.60;2.17;;;;;;;15.89;95.69;101260.97;5093690;28;20047;-84
2022/07/13 01:44:17;;;;;;;11.35;1.75;;;;;;;15.74;96.10;101259.91;5092936;28;20055;-84
2022/07/13 01:46:43;;;;;;;7.32;1.33;;;;;;;15.71;97.91;101260.09;5114000;28;20138;-83
2022/07/13 01:49:10;;;;;;;5.53;1.40;;;;;;;15.83;96.30;101254.22;5114246;28;20096;-81
2022/07/13 01:51:38;;;;;;;4.68;1.10;;;;;;;15.78;95.98;101273.88;5113575;28;20046;-83
2022/07/13 01:54:05;;;;;;;7.00;1.20;;;;;;;15.69;96.84;101257.53;5093210;28;20753;-83
2022/07/13 01:56:34;;;;;;;5.28;1.23;;;;;;;15.31;100.00;101222.50;5093561;28;20404;-83
2022/07/13 01:59:02;;;;;;;6.57;1.27;;;;;;;15.40;100.00;101273.97;5110760;28;20043;-83
2022/07/13 02:01:28;;;;;;;4.70;1.13;;;;;;;15.17;100.00;101260.09;5108133;28;20065;-83
2022/07/13 02:03:55;;;;;;;5.75;1.30;;;;;;;15.04;100.00;101249.28;5086339;28;20371;-83
2022/07/13 02:06:22;;;;;;;5.32;1.10;;;;;;;15.07;100.00;101243.88;5117517;28;20583;-83
2022/07/13 02:08:49;;;;;;;7.90;1.40;;;;;;;14.94;100.00;101251.53;5112776;28;20051;-83
2022/07/13 02:11:17;;;;;;;4.68;1.13;;;;;;;15.09;100.00;101249.09;5093732;28;20054;-83
2022/07/13 02:13:45;;;;;;;5.40;1.00;;;;;;;15.23;100.00;101261.56;5091469;28;20048;-83
2022/07/13 02:16:13;;;;;;;2.78;1.00;;;;;;;15.21;100.00;101256.41;5084265;28;20123;-83
2022/07/13 02:18:41;;;;;;;5.68;0.90;;;;;;;15.27;100.00;101263.16;5075514;28;20047;-83
2022/07/13 02:21:09;;;;;;;3.47;1.10;;;;;;;15.11;100.00;101277.09;5111366;28;20051;-83
2022/07/13 02:23:35;;;;;;;4.18;0.90;;;;;;;14.89;100.00;101255.28;5097018;28;20085;-83
2022/07/13 02:26:02;;;;;;;4.53;1.02;;;;;;;14.93;100.00;101256.88;5117615;27;20046;-83
2022/07/13 02:28:29;;;;;;;3.35;0.98;;;;;;;14.85;100.00;101256.38;5095725;28;20040;-83
2022/07/13 02:30:56;;;;;;;6.65;1.10;;;;;;;14.86;100.00;101258.09;5098307;28;20522;-83
2022/07/13 02:33:22;;;;;;;7.55;1.20;;;;;;;14.81;100.00;101251.25;5076052;28;20059;-84
2022/07/13 02:35:49;;;;;;;3.10;1.00;;;;;;;15.03;100.00;101252.00;5108470;27;20416;-83
2022/07/13 02:38:16;;;;;;;4.38;0.90;;;;;;;15.21;98.78;101259.03;5096688;28;20050;-83
2022/07/13 02:40:43;;;;;;;2.00;0.75;;;;;;;14.94;97.22;101230.44;5114506;28;20054;-83
2022/07/13 02:43:09;;;;;;;1.42;0.80;;;;;;;15.06;96.69;101239.53;5093123;28;20058;-83
2022/07/13 02:45:36;;;;;;;5.05;1.15;;;;;;;15.29;95.98;101256.03;5097783;28;20048;-83
2022/07/13 02:48:03;;;;;;;2.45;0.85;;;;;;;15.17;95.55;101241.63;5096736;28;20054;-83
2022/07/13 02:50:30;;;;;;;4.30;0.95;;;;;;;14.96;100.00;101257.59;5105861;28;20055;-84
2022/07/13 02:52:57;;;;;;;3.40;1.00;;;;;;;14.98;100.00;101250.44;5090744;28;20461;-83
2022/07/13 02:55:24;;;;;;;4.00;1.10;;;;;;;14.95;100.00;101215.47;5115094;28;20417;-83
2022/07/13 02:57:50;;;;;;;6.90;1.00;;;;;;;15.12;100.00;101248.91;5096673;28;20052;-83
2022/07/13 03:00:17;;;;;;;3.22;0.90;;;;;;;14.83;100.00;101224.81;5092582;28;20044;-84
2022/07/13 03:02:44;;;;;;;3.13;0.95;;;;;;;14.68;100.00;101180.72;5085694;28;20553;-83
2022/07/13 03:05:10;;;;;;;5.60;1.10;;;;;;;15.03;100.00;101252.84;5107976;28;20040;-83
2022/07/13 03:07:37;;;;;;;4.53;1.33;;;;;;;14.56;100.00;101192.69;5105802;28;20473;-83
2022/07/13 03:10:04;;;;;;;5.05;1.13;;;;;;;14.77;100.00;101240.94;5127961;27;20051;-83
2022/07/13 03:12:31;;;;;;;3.15;0.90;;;;;;;14.52;100.00;101243.78;5091216;28;20040;-83
2022/07/13 03:14:59;;;;;;;2.75;0.82;;;;;;;14.33;100.00;101225.38;5109214;27;20470;-83
2022/07/13 03:17:25;;;;;;;5.00;1.10;;;;;;;14.54;100.00;101248.09;5087735;28;20090;-82
2022/07/13 03:19:52;;;;;;;1.65;0.80;;;;;;;14.55;100.00;101251.56;5105509;28;20058;-83
2022/07/13 03:22:19;;;;;;;3.28;1.00;;;;;;;14.50;100.00;101240.38;5092431;28;20404;-83
2022/07/13 03:24:46;;;;;;;4.72;1.02;;;;;;;14.36;100.00;101202.38;5082105;28;20943;-83
2022/07/13 03:27:12;;;;;;;5.32;1.02;;;;;;;14.70;100.00;101240.34;5095817;28;20074;-83
2022/07/13 03:29:39;;;;;;;3.25;0.98;;;;;;;14.40;100.00;101184.63;5082810;28;20409;-83
2022/07/13 03:32:06;;;;;;;2.90;0.90;;;;;;;14.36;100.00;101190.94;5092577;28;20051;-84
2022/07/13 03:34:33;;;;;;;2.97;0.80;;;;;;;14.51;100.00;101200.78;5093473;28;20048;-83
2022/07/13 03:37:00;;;;;;;3.35;1.00;;;;;;;14.61;100.00;101248.69;5075861;28;20504;-83
2022/07/13 03:39:26;;;;;;;3.72;1.23;;;;;;;14.71;100.00;101249.09;5083321;27;20043;-83
2022/07/13 03:41:53;;;;;;;2.38;0.70;;;;;;;14.69;100.00;101254.44;5116432;27;20047;-83
2022/07/13 03:44:20;;;;;;;1.70;0.73;;;;;;;14.38;100.00;101203.16;5082146;28;20051;-84
2022/07/13 03:46:47;;;;;;;1.45;0.80;;;;;;;14.32;100.00;101221.00;5113149;28;20048;-83
2022/07/13 03:49:14;;;;;;;2.00;0.60;;;;;;;14.37;100.00;101229.56;5098248;28;20052;-84
2022/07/13 03:51:42;;;;;;;2.42;0.80;;;;;;;14.31;100.00;101224.59;5095700;28;20040;-83
2022/07/13 03:54:09;;;;;;;2.50;0.77;;;;;;;14.16;100.00;101252.44;5113232;28;20503;-84
2022/07/13 03:56:36;;;;;;;2.17;0.90;;;;;;;14.12;100.00;101243.81;5100843;27;20403;-83
2022/07/13 03:59:02;;;;;;;3.60;0.90;;;;;;;14.20;100.00;101261.91;5093061;28;20434;-82
2022/07/13 04:01:29;;;;;;;3.25;0.90;;;;;;;14.03;100.00;101263.50;5106475;28;20035;-82
2022/07/13 04:03:58;;;;;;;1.05;0.70;;;;;;;14.23;100.00;101272.31;5094809;28;20059;-82
2022/07/13 04:06:25;;;;;;;2.60;0.93;;;;;;;14.30;100.00;101268.47;5108869;27;20074;-83
2022/07/13 04:08:52;;;;;;;3.15;1.02;;;;;;;14.33;100.00;101275.41;5080456;28;20044;-83
2022/07/13 04:11:19;;;;;;;4.05;1.00;;;;;;;14.05;100.00;101260.81;5093283;28;20409;-83
2022/07/13 04:13:45;;;;;;;5.80;0.95;;;;;;;13.95;100.00;101257.75;5082957;28;20675;-83
2022/07/13 04:16:12;;;;;;;2.28;0.93;;;;;;;14.12;100.00;101256.16;5088080;28;20048;-83
2022/07/13 04:18:39;;;;;;;5.80;1.00;;;;;;;14.91;100.00;101269.25;5095487;28;20048;-83
2022/07/13 04:21:07;;;;;;;4.75;1.13;;;;;;;15.40;100.00;101261.59;5124438;27;20047;-83
2022/07/13 04:23:34;;;;;;;4.03;1.02;;;;;;;16.12;99.27;101268.53;5092798;27;20039;-83
2022/07/13 04:26:00;;;;;;;2.00;0.90;;;;;;;16.13;96.44;101258.84;5113584;27;20205;-83
2022/07/13 04:28:27;;;;;;;3.63;1.10;;;;;;;17.02;91.52;101264.59;5114255;27;20054;-84
2022/07/13 04:30:54;;;;;;;4.18;1.23;;;;;;;17.09;85.82;101275.69;5120724;27;20046;-83
2022/07/13 04:33:21;;;;;;;3.35;1.10;;;;;;;16.43;89.01;101282.78;5101599;28;20051;-83
2022/07/13 04:35:47;;;;;;;7.45;1.23;;;;;;;16.46;92.14;101272.03;5115568;27;20065;-84
2022/07/13 04:38:14;;;;;;;6.18;1.00;;;;;;;16.22;97.52;101273.31;5091289;28;20056;-84
2022/07/13 04:40:41;;;;;;;4.18;0.98;;;;;;;16.71;97.13;101273.34;5096357;28;20063;-84
2022/07/13 04:43:08;;;;;;;2.42;0.75;;;;;;;17.40;87.27;101256.25;5097412;27;20054;-84
2022/07/13 04:45:35;;;;;;;3.30;0.95;;;;;;;18.06;78.51;101250.66;5080852;28;20404;-84
2022/07/13 04:48:02;;;;;;;2.28;0.80;;;;;;;18.10;77.57;101260.16;5107483;28;20047;-83
2022/07/13 04:50:29;;;;;;;2.90;0.80;;;;;;;18.60;73.53;101241.06;5112895;28;20668;-83
2022/07/13 04:52:55;;;;;;;3.67;1.02;;;;;;;18.01;75.16;101277.44;5112229;27;20139;-84
2022/07/13 04:55:23;;;;;;;5.78;1.40;;;;;;;18.36;72.39;101263.81;5111086;27;20100;-84
2022/07/13 04:57:50;;;;;;;4.68;0.85;;;;;;;17.43;77.11;101274.59;5115974;27;20469;-84
2022/07/13 05:00:16;;;;;;;3.97;0.90;;;;;;;16.31;85.97;101280.78;5091626;28;20050;-83
2022/07/13 05:02:43;;;;;;;5.88;1.00;;;;;;;15.99;93.30;101262.19;5098246;28;20050;-83
2022/07/13 05:05:10;;;;;;;4.60;0.98;;;;;;;15.10;100.00;101263.97;5112465;28;20485;-84
2022/07/13 05:07:37;;;;;;;3.22;1.00;;;;;;;15.31;100.00;101276.09;5094063;28;20054;-83
2022/07/13 05:10:07;;;;;;;3.80;0.90;;;;;;;15.16;100.00;101256.63;5126762;27;20054;-84
2022/07/13 05:12:41;;;;;;;3.45;1.00;;;;;;;15.35;100.00;101288.25;5102448;28;20045;-83
2022/07/13 05:15:09;;;;;;;4.32;0.85;;;;;;;15.71;99.83;101297.03;5094413;28;20039;-83
2022/07/13 05:17:36;;;;;;;2.03;0.80;;;;;;;16.06;95.21;101265.34;5084411;28;20052;-83
2022/07/13 05:20:04;;;;;;;2.83;0.90;;;;;;;15.81;94.53;101286.91;5087214;28;20054;-83
2022/07/13 05:22:31;;;;;;;2.60;0.95;;;;;;;15.54;98.59;101297.88;5076669;28;20044;-83
2022/07/13 05:24:59;;;;;;;4.53;0.90;;;;;;;15.85;94.18;101293.75;5106970;28;20050;-83
2022/07/13 05:27:26;;;;;;;3.45;0.98;;;;;;;15.78;95.45;101293.19;5118719;27;20047;-83
2022/07/13 05:29:53;;;;;;;1.15;0.60;;;;;;;15.73;95.33;101287.25;5100249;28;20062;-83
2022/07/13 05:32:20;;;;;;;1.92;0.80;;;;;;;15.43;96.32;101273.81;5109194;27;20122;-83
2022/07/13 05:34:46;;;;;;;2.80;0.90;;;;;;;15.47;95.12;101265.66;5091674;28;20056;-84
2022/07/13 05:37:14;;;;;;;3.63;1.42;;;;;;;16.13;92.74;101290.53;5123862;27;20047;-83
2022/07/13 05:39:45;;;;;;;3.10;0.88;;;;;;;16.09;91.16;101299.53;5085299;28;20040;-83
2022/07/13 05:42:13;;;;;;;3.40;0.82;;;;;;;16.27;90.34;101293.31;5098763;28;20048;-84
2022/07/13 05:44:40;;;;;;;3.70;0.88;;;;;;;16.42;88.04;101301.38;5084884;28;20048;-83
2022/07/13 05:47:07;;;;;;;1.80;0.77;;;;;;;16.12;91.69;101299.38;5106952;28;20044;-84
2022/07/13 05:49:33;;;;;;;2.35;0.80;;;;;;;15.94;92.16;101303.84;5087877;28;20044;-84
2022/07/13 05:52:00;;;;;;;4.63;0.90;;;;;;;16.08;91.76;101293.41;5078500;28;20487;-84
2022/07/13 05:54:27;;;;;;;4.80;0.70;;;;;;;16.51;88.56;101293.78;5087464;28;20066;-84
2022/07/13 05:57:11;;;;;;;1.55;0.70;;;;;;;17.80;82.18;101279.56;5105177;28;20040;-84
2022/07/13 05:59:38;;;;;;;2.47;0.77;;;;;;;18.84;75.89;101284.72;5099603;28;20478;-84
2022/07/13 06:02:05;;;;;;;3.38;0.85;;;;;;;19.02;72.20;101264.16;5090233;28;20054;-84
2022/07/13 06:04:31;;;;;;;2.60;0.70;;;;;;;18.87;70.84;101237.63;5085053;28;20055;-84
2022/07/13 06:06:58;;;;;;;1.75;0.75;;;;;;;19.40;69.55;101266.91;5100535;27;20039;-85
2022/07/13 06:09:25;;;;;;;2.53;0.75;;;;;;;19.91;66.33;101244.94;5116244;27;20044;-84
2022/07/13 06:11:52;;;;;;;2.05;0.60;;;;;;;20.26;69.83;101250.47;5094335;28;20048;-84
2022/07/13 06:14:19;;;;;;;0.93;0.60;;;;;;;20.53;66.32;101243.31;5093278;27;20048;-84
2022/07/13 06:16:46;;;;;;;1.10;0.50;;;;;;;20.28;62.99;101250.34;5103980;28;20062;-84
2022/07/13 06:19:12;;;;;;;1.63;0.50;;;;;;;20.99;60.54;101262.13;5107812;27;20047;-84
2022/07/13 06:21:39;;;;;;;3.28;0.70;;;;;;;20.65;63.13;101282.34;5105278;27;20048;-84
2022/07/13 06:24:06;;;;;;;3.13;0.65;;;;;;;21.01;60.91;101275.31;5101008;27;20049;-84
2022/07/13 06:26:33;;;;;;;1.95;0.60;;;;;;;21.00;60.80;101258.50;5104902;27;20051;-84
2022/07/13 06:29:00;;;;;;;0.82;0.38;;;;;;;21.21;60.63;101236.56;5120939;27;20054;-84
2022/07/13 06:31:27;;;;;;;2.08;0.60;;;;;;;20.56;59.64;101245.75;5114430;27;20050;-84
2022/07/13 06:33:54;;;;;;;1.70;0.50;;;;;;;21.28;59.87;101247.63;5085203;27;20508;-84
2022/07/13 06:36:21;;;;;;;1.48;0.50;;;;;;;21.41;59.49;101230.59;5114946;27;20054;-84
2022/07/13 06:38:49;;;;;;;2.30;0.82;;;;;;;20.97;59.47;101274.69;5112006;28;20048;-85
2022/07/13 06:41:17;;;;;;;2.20;0.50;;;;;;;21.05;57.54;101248.38;5121060;27;20065;-85
2022/07/13 06:43:44;;;;;;;1.70;0.50;;;;;;;21.46;56.21;101221.44;5102632;28;20043;-85
2022/07/13 06:46:11;;;;;;;2.25;0.65;;;;;;;21.35;55.30;101248.84;5132916;27;20047;-85
2022/07/13 06:48:38;;;;;;;1.20;0.40;;;;;;;21.11;55.19;101244.41;5111603;27;20066;-85
2022/07/13 06:51:04;;;;;;;1.42;0.65;;;;;;;20.43;56.67;101262.59;5125105;27;20047;-85
2022/07/13 06:53:31;;;;;;;1.10;0.40;;;;;;;21.36;54.98;101187.50;5122658;27;20040;-84
2022/07/13 06:55:58;;;;;;;2.33;0.50;;;;;;;21.51;53.82;101187.31;5102733;27;20043;-84
2022/07/13 06:58:24;;;;;;;2.25;0.60;;;;;;;21.06;53.54;101257.19;5104737;27;20040;-83
2022/07/13 07:00:51;;;;;;;0.65;0.35;;;;;;;21.55;54.44;101250.91;5107371;27;20488;-82
2022/07/13 07:03:18;;;;;;;0.82;0.40;;;;;;;21.68;53.20;101245.50;5115060;27;20042;-84
2022/07/13 07:05:46;;;;;;;2.25;0.50;;;;;;;22.09;51.28;101236.09;5096925;28;20167;-84
2022/07/13 07:08:13;;;;;;;2.60;0.52;;;;;;;22.75;51.58;101227.34;5100468;28;20047;-84
2022/07/13 07:10:40;;;;;;;3.30;0.90;;;;;;;22.17;50.94;101217.69;5104350;27;20047;-84
2022/07/13 07:13:07;;;;;;;3.50;0.52;;;;;;;22.34;51.18;101216.34;5108091;27;20048;-84
2022/07/13 07:15:35;;;;;;;1.42;0.43;;;;;;;22.93;50.67;101270.41;5107683;27;20046;-84
2022/07/13 07:18:01;;;;;;;3.22;0.60;;;;;;;22.99;49.51;101258.34;5110601;27;20050;-83
2022/07/13 07:20:35;;;;;;;3.35;0.88;;;;;;;22.94;48.18;101230.19;5108984;28;20502;-84
2022/07/13 07:23:02;;;;;;;1.35;0.45;;;;;;;23.66;48.73;101275.97;5104807;28;20556;-84
2022/07/13 07:25:28;;;;;;;2.03;0.45;;;;;;;23.15;46.67;101255.31;5092682;28;20050;-84
2022/07/13 07:27:55;;;;;;;3.58;0.55;;;;;;;23.19;46.84;101252.22;5098482;27;20058;-83
2022/07/13 07:30:22;;;;;;;2.50;0.50;;;;;;;23.19;46.78;101236.22;5105715;27;20051;-84
2022/07/13 07:32:48;;;;;;;4.00;0.70;;;;;;;23.13;47.15;101271.44;5114312;27;20134;-84
2022/07/13 07:35:15;;;;;;;1.73;0.40;;;;;;;23.75;46.10;101243.09;5120413;27;20131;-84
2022/07/13 07:37:42;;;;;;;3.03;0.60;;;;;;;23.50;45.14;101257.69;5113702;27;20045;-84
2022/07/13 07:40:11;;;;;;;3.60;0.80;;;;;;;23.17;45.71;101270.22;5100368;28;20074;-84
2022/07/13 07:42:38;;;;;;;3.47;0.60;;;;;;;22.27;46.30;101270.31;5091224;28;20121;-84
2022/07/13 07:45:06;;;;;;;3.00;0.57;;;;;;;22.62;47.04;101258.66;5115392;27;20047;-85
2022/07/13 07:47:33;;;;;;;2.22;0.40;;;;;;;22.60;45.67;101226.75;5104938;27;20052;-85
2022/07/13 07:50:00;;;;;;;4.10;0.80;;;;;;;22.91;44.71;101262.50;5100774;28;20044;-85
2022/07/13 07:52:28;;;;;;;1.27;0.40;;;;;;;22.47;46.02;101226.91;5090221;28;20050;-85
2022/07/13 07:55:15;;;;;;;1.88;0.50;;;;;;;22.96;44.93;101234.56;5090748;28;20478;-85
2022/07/13 07:57:46;;;;;;;2.33;0.70;;;;;;;22.84;44.31;101268.44;5094540;28;20048;-84
2022/07/13 08:00:14;;;;;;;2.83;0.60;;;;;;;22.91;44.67;101258.97;5105948;28;20098;-84
2022/07/13 08:02:41;;;;;;;2.67;0.60;;;;;;;23.30;44.44;101260.22;5113070;28;20051;-84
2022/07/13 08:05:08;;;;;;;1.30;0.50;;;;;;;23.48;43.96;101257.81;5114080;28;20427;-85
2022/07/13 08:07:39;;;;;;;2.28;0.60;;;;;;;23.56;44.04;101257.16;5085556;28;20055;-85
2022/07/13 08:10:07;;;;;;;3.42;0.70;;;;;;;23.72;44.09;101258.56;5112462;28;20762;-85
2022/07/13 08:12:53;;;;;;;4.75;1.15;;;;;;;23.82;43.49;101252.31;5103534;28;20394;-85
2022/07/13 08:15:21;;;;;;;3.47;0.80;;;;;;;24.29;42.69;101246.47;5090219;28;20421;-85
2022/07/13 08:17:48;;;;;;;2.35;0.63;;;;;;;24.02;42.03;101281.84;5078797;28;20048;-85
2022/07/13 08:20:15;;;;;;;4.25;0.63;;;;;;;24.67;41.45;101263.72;5110484;28;20100;-85
2022/07/13 08:22:48;;;;;;;;;;;;;;;24.97;41.43;101273.50;5103733;28;20455;-85
2022/07/13 08:25:15;;;;;;;5.53;0.77;;;;;;;24.80;42.43;101264.28;5108387;28;19927;-85
2022/07/13 08:27:43;;;;;;;1.63;0.60;;;;;;;24.42;40.96;101265.00;5104623;27;20069;-85
2022/07/13 08:30:13;;;;;;;3.78;0.98;;;;;;;24.60;40.25;101268.75;5096707;28;20093;-85
2022/07/13 08:32:40;;;;;;;2.58;0.60;;;;;;;23.61;41.65;101273.66;5093191;28;20036;-85
2022/07/13 08:40:42;;;;;;;2.78;0.63;;;;;;;23.30;42.34;101275.38;5105480;28;20125;-85
2022/07/13 08:43:09;;;;;;;3.40;0.50;;;;;;;23.01;42.91;101264.41;5084458;28;20446;-85
2022/07/13 08:45:36;;;;;;;2.83;0.68;;;;;;;23.86;41.76;101235.03;5082388;28;20524;-84
2022/07/13 08:48:13;;;;;;;3.22;0.80;;;;;;;23.54;41.09;101250.28;5076432;28;20048;-84
2022/07/13 08:50:41;;;;;;;1.38;0.47;;;;;;;23.18;42.43;101228.31;5089214;28;20054;-84
2022/07/13 08:53:08;;;;;;;2.10;0.52;;;;;;;23.03;42.77;101252.63;5083727;28;20058;-84
2022/07/13 08:55:36;;;;;;;3.38;0.50;;;;;;;23.02;42.90;101247.41;5095951;27;20047;-84
2022/07/13 08:58:03;;;;;;;3.38;0.50;;;;;;;22.30;43.76;101219.41;5106679;27;20044;-85
2022/07/13 09:00:29;;;;;;;3.53;0.63;;;;;;;22.38;45.13;101246.31;5079218;28;20044;-85
2022/07/13 09:02:57;;;;;;;3.15;0.68;;;;;;;22.61;44.43;101231.16;5104933;28;20043;-85
2022/07/13 09:05:26;;;;;;;3.60;0.60;;;;;;;22.99;43.61;101256.53;5103083;28;20054;-84
2022/07/13 09:08:11;;;;;;;3.40;0.70;;;;;;;22.08;45.12;101255.75;5088628;28;20130;-84
2022/07/13 09:10:57;;;;;;;1.90;0.50;;;;;;;21.80;44.92;101227.72;5100254;28;20047;-84
2022/07/13 09:13:44;;;;;;;1.67;0.57;;;;;;;21.51;45.62;101269.91;5078837;28;20040;-84
2022/07/13 09:16:19;;;;;;;3.70;0.75;;;;;;;21.04;45.64;101251.16;5106272;27;20532;-84
2022/07/13 09:18:51;;;;;;;3.40;0.80;;;;;;;21.23;45.32;101274.63;5094166;28;20052;-84
2022/07/13 09:21:24;;;;;;;1.83;0.65;;;;;;;21.01;46.23;101230.91;5087684;28;20058;-84
2022/07/13 09:23:55;;;;;;;1.88;0.50;;;;;;;21.51;46.17;101252.09;5089419;28;20044;-84
2022/07/13 09:26:23;;;;;;;2.10;0.65;;;;;;;21.69;45.17;101238.34;5104535;28;20522;-84
2022/07/13 09:28:51;;;;;;;2.22;0.60;;;;;;;21.95;45.65;101261.16;5091872;28;20050;-84
2022/07/13 09:31:18;;;;;;;4.20;1.10;;;;;;;22.08;45.15;101245.06;5108282;28;20055;-84
2022/07/13 09:33:46;;;;;;;2.55;0.73;;;;;;;22.08;44.82;101246.88;5077463;28;20043;-84
2022/07/13 09:36:24;;;;;;;1.63;0.60;;;;;;;22.70;43.96;101248.22;5091874;28;20486;-84
2022/07/13 09:38:58;;;;;;;1.95;0.60;;;;;;;22.52;43.74;101219.41;5109421;28;20052;-84
2022/07/13 09:41:25;;;;;;;2.78;0.60;;;;;;;22.87;44.52;101244.19;5086278;28;20156;-84
2022/07/13 09:46:57;;;;;;;2.38;0.60;;;;;;;22.70;43.06;101254.41;5092179;28;20051;-85
2022/07/13 09:49:41;;;;;;;2.03;0.50;;;;;;;23.15;43.65;101269.50;5097671;28;20048;-85
2022/07/13 09:52:11;;;;;;;2.53;0.60;;;;;;;23.59;42.44;101238.22;5091365;28;20543;-85
2022/07/13 09:54:39;;;;;;;3.40;0.73;;;;;;;23.19;42.81;101214.00;5087976;28;20055;-85
2022/07/13 09:57:13;;;;;;;2.13;0.80;;;;;;;23.38;44.14;101230.19;5074609;28;20048;-85
2022/07/13 09:59:42;;;;;;;3.58;1.05;;;;;;;23.73;41.47;101265.56;5078802;28;20424;-85
2022/07/13 10:02:09;;;;;;;2.25;0.60;;;;;;;23.67;42.47;101264.28;5093047;28;20044;-85
2022/07/13 10:04:38;;;;;;;2.55;0.70;;;;;;;23.99;42.30;101256.22;5092898;28;20044;-85
2022/07/13 10:07:16;;;;;;;4.45;1.02;;;;;;;23.90;41.36;101216.03;5096304;28;20047;-85
2022/07/13 10:09:43;;;;;;;2.08;0.60;;;;;;;24.08;41.71;101209.09;5093093;28;20051;-85
2022/07/13 10:12:10;;;;;;;2.00;0.70;;;;;;;24.38;40.97;101212.72;5092925;28;20074;-85
2022/07/13 10:14:38;;;;;;;2.25;0.47;;;;;;;24.48;40.44;101259.09;5098843;28;20490;-85
2022/07/13 10:17:16;;;;;;;5.30;0.68;;;;;;;24.56;40.65;101245.06;5093652;28;20086;-85
2022/07/13 10:20:05;;;;;;;1.73;0.70;;;;;;;23.92;40.17;101222.97;5087698;28;20043;-85
2022/07/13 10:22:42;;;;;;;1.75;0.50;;;;;;;24.54;40.08;101226.47;5094422;28;20123;-85
2022/07/13 10:25:09;;;;;;;2.25;0.47;;;;;;;24.06;40.58;101235.13;5108023;28;20134;-85
2022/07/13 10:27:37;;;;;;;3.42;0.85;;;;;;;24.19;40.54;101232.25;5098892;28;20721;-85
2022/07/13 10:30:07;;;;;;;2.88;0.60;;;;;;;24.12;40.15;101249.81;5110133;28;20043;-86
2022/07/13 10:32:42;;;;;;;4.13;1.02;;;;;;;24.16;40.06;101254.75;5081622;28;20044;-86
2022/07/13 10:35:11;;;;;;;2.80;0.52;;;;;;;23.79;41.25;101262.41;5092174;28;20052;-85
2022/07/13 10:37:56;;;;;;;8.15;0.77;;;;;;;23.74;42.04;101265.44;5094071;28;20131;-85
2022/07/13 10:40:33;;;;;;;4.82;0.70;;;;;;;23.20;42.23;101245.09;5101121;28;20048;-84
2022/07/13 10:43:05;;;;;;;5.45;0.65;;;;;;;22.79;42.86;101276.84;5101177;28;20063;-85
2022/07/13 10:45:38;;;;;;;3.55;0.60;;;;;;;22.79;43.41;101274.19;5083750;28;20101;-85
2022/07/13 10:48:07;;;;;;;2.70;0.50;;;;;;;23.06;43.07;101272.94;5091924;28;20055;-85
2022/07/13 10:50:47;;;;;;;1.50;0.40;;;;;;;23.40;42.61;101244.25;5089110;28;20048;-85
2022/07/13 10:53:19;;;;;;;2.65;0.60;;;;;;;23.29;42.31;101237.13;5088209;28;20066;-85
2022/07/13 10:55:50;;;;;;;0.73;0.38;;;;;;;23.44;42.46;101240.38;5094448;28;20101;-86
2022/07/13 10:58:39;;;;;;;1.38;0.55;;;;;;;23.57;41.29;101266.91;5098035;28;20056;-86
2022/07/13 11:01:33;;;;;;;2.80;0.52;;;;;;;23.84;42.53;101265.56;5110176;28;20131;-85
2022/07/13 11:04:04;;;;;;;2.47;0.82;;;;;;;23.16;42.66;101267.66;5089459;28;20051;-85
2022/07/13 11:06:34;;;;;;;1.83;0.68;;;;;;;23.58;43.19;101284.59;5091461;28;20075;-85
2022/07/13 11:09:15;;;;;;;1.38;0.50;;;;;;;23.65;42.83;101253.72;5092450;28;20135;-86
2022/07/13 11:11:46;;;;;;;3.33;0.95;;;;;;;23.01;42.62;101227.88;5090537;28;20055;-85
2022/07/13 11:14:38;;;;;;;2.40;0.68;;;;;;;22.88;43.29;101278.75;5104074;28;20054;-86
2022/07/13 11:17:24;;;;;;;6.45;0.70;;;;;;;22.77;44.40;101273.47;5109207;27;20052;-86
2022/07/13 11:20:14;;;;;;;3.15;0.70;;;;;;;23.11;43.58;101252.88;5094048;27;20048;-85
2022/07/13 11:25:48;;;;;;;5.15;0.70;;;;;;;22.56;43.84;101222.66;5119038;27;20058;-86
2022/07/13 11:28:33;;;;;;;2.50;0.57;;;;;;;22.85;44.56;101276.34;5121113;27;20096;-86
2022/07/13 11:31:03;;;;;;;3.80;0.60;;;;;;;22.96;44.31;101285.31;5110871;27;20048;-85
2022/07/13 11:33:30;;;;;;;2.03;0.60;;;;;;;22.65;44.58;101237.09;5116424;27;20047;-86
2022/07/13 11:35:59;;;;;;;3.33;0.90;;;;;;;22.75;44.45;101256.69;5115766;27;20043;-86
2022/07/13 11:38:34;;;;;;;3.20;0.50;;;;;;;21.94;45.91;101262.16;5103683;27;20556;-86
2022/07/13 11:41:02;;;;;;;2.22;0.50;;;;;;;22.84;46.51;101274.66;5104147;28;20066;-85
2022/07/13 11:43:29;;;;;;;1.80;0.70;;;;;;;23.25;44.38;101281.13;5089018;27;20051;-87